Portada
METAR-TAF:

METAR-TAF

Aeroports :

Craiova, Romania

latitud: 44-14N, longitud: 023-52E, altitud: 192 m

Observació

L'informe es va fer fa 35 minuts, a les 01:00 UTC
Vent 7 kt del Nord-Est
Temperatura 14°C
Humitat 72%
Pressió 1014 hPa
Visibilitat 10 km o més
sense núvols per sota de 1500 mi sense presència de cumulonimbus.

METAR: LRCV 150100Z 05007KT CAVOK 14/09 Q1014

Hora: 04:35 (01:35 UTC)

Pronòstic

L'informe es va fer fa 2 hores i 35 minuts, a les 23:00 UTC
Pronòstic vàlid del 15 a les 00 UTC al 15 a les 09 UTC
Vent 8 kt del Est
Visibilitat 10 km o més
sense núvols per sota de 1500 mi sense presència de cumulonimbus.

TAF: LRCV 142300Z 1500/1509 08008KT CAVOK

Observacions i pronòstics meteorològics de més de 4000 aeroports (METAR i TAF).

Les estacions disponibles són els punts grocs i vermells al mapa.

Posi el ratolí al punt desitjat per veure el nom de l'estació.

Feu clic per veure les observacions i els pronòstics meteorològics.

Per canviar el mapa: feu clic els botons verds amb una creu de color negre per apropar; al botó verd amb un guió per allunyar la imatge; o en les fletxes verdes per a mapes adjacents.


METAR-TAF: